Time;durP1;ratioP1;P1;durP2;ratioP2;P2;SDS_P1;SDS_P2;PMS_P1;PMS_P2;Temp;Humidity;BMP_temperature;BMP_pressure;BME280_temperature;BME280_humidity;BME280_pressure;Samples;Min_cycle;Max_cycle;Signal;HPM_P1;HPM_P2
2022/08/29 00:02:14;;;;;;;;;;;15.10;99.90;;;;;;5047223;28;19928;-70
2022/08/29 00:04:41;;;;;;;;;;;15.00;99.90;;;;;;5042126;28;19983;-70
2022/08/29 00:07:07;;;;;;;;;;;15.00;99.90;;;;;;5042195;28;19925;-70
2022/08/29 00:09:34;;;;;;;;;;;15.00;99.90;;;;;;5042333;28;19924;-70
2022/08/29 00:12:02;;;;;;;;;;;14.90;99.90;;;;;;5043727;28;19932;-70
2022/08/29 00:14:30;;;;;;;;;;;14.90;99.90;;;;;;5044548;28;19925;-70
2022/08/29 00:16:56;;;;;;;;;;;14.80;99.90;;;;;;5028319;28;19974;-70
2022/08/29 00:19:23;;;;;;;;;;;14.80;99.90;;;;;;5045566;28;19928;-70
2022/08/29 00:21:50;;;;;;;;;;;14.90;99.90;;;;;;5042057;28;20339;-70
2022/08/29 00:24:17;;;;;;;;;;;14.80;99.90;;;;;;5042374;28;19929;-71
2022/08/29 00:26:43;;;;;;;;;;;14.80;99.90;;;;;;5042010;28;19932;-70
2022/08/29 00:29:12;;;;;;;;;;;14.80;99.90;;;;;;5041739;28;19929;-70
2022/08/29 00:31:39;;;;;;;;;;;14.80;99.90;;;;;;5043220;28;20062;-71
2022/08/29 00:34:05;;;;;;;;;;;14.90;99.90;;;;;;5042024;28;19932;-71
2022/08/29 00:36:32;;;;;;;;;;;14.80;99.90;;;;;;5045013;28;19928;-71
2022/08/29 00:38:59;;;;;;;;;;;14.80;99.90;;;;;;5041285;28;19932;-70
2022/08/29 00:41:26;;;;;;;;;;;14.70;99.90;;;;;;5038947;28;19975;-71
2022/08/29 00:43:53;;;;;;;;;;;14.70;99.90;;;;;;5044019;28;19975;-70
2022/08/29 00:46:41;;;;;;;;;;;14.70;99.90;;;;;;5042472;28;19928;-70
2022/08/29 00:49:11;;;;;;;;;;;14.60;99.90;;;;;;5029367;28;20307;-70
2022/08/29 00:51:39;;;;;;;;;;;14.60;99.90;;;;;;5045685;28;19936;-71
2022/08/29 00:54:08;;;;;;;;;;;14.50;99.90;;;;;;5038023;28;19925;-71
2022/08/29 00:56:36;;;;;;;;;;;14.50;99.90;;;;;;5046361;28;19925;-69
2022/08/29 00:59:06;;;;;;;;;;;14.40;99.90;;;;;;5041413;28;19960;-70
2022/08/29 01:01:33;;;;;;;;;;;14.50;99.90;;;;;;5046504;28;20023;-70
2022/08/29 01:04:00;;;;;;;;;;;14.50;99.90;;;;;;5041413;28;19928;-70
2022/08/29 01:06:28;;;;;;;;;;;14.40;99.90;;;;;;5042505;23;19929;-69
2022/08/29 01:08:55;;;;;;;;;;;14.40;99.90;;;;;;4995663;28;19975;-69
2022/08/29 01:14:07;;;;;;;;;;;14.30;99.90;;;;;;4992319;28;19921;-69
2022/08/29 01:16:35;;;;;;;;;;;14.30;99.90;;;;;;5013307;28;19961;-69
2022/08/29 01:19:07;;;;;;;;;;;14.30;99.90;;;;;;5029733;28;19925;-69
2022/08/29 01:21:40;;;;;;;;;;;14.30;99.90;;;;;;5016044;28;19925;-68
2022/08/29 01:24:10;;;;;;;;;;;14.30;99.90;;;;;;5016690;28;19925;-68
2022/08/29 01:26:38;;;;;;;;;;;14.30;99.90;;;;;;5016467;28;20460;-69
2022/08/29 01:29:05;;;;;;;;;;;14.20;99.90;;;;;;5015917;28;20332;-69
2022/08/29 01:31:37;;;;;;;;;;;14.20;99.90;;;;;;5012940;28;20019;-65
2022/08/29 01:34:04;;;;;;;;;;;14.20;99.90;;;;;;5015829;28;19979;-69
2022/08/29 01:36:33;;;;;;;;;;;14.20;99.90;;;;;;5012848;28;19925;-69
2022/08/29 01:38:59;;;;;;;;;;;14.20;99.90;;;;;;5015320;28;19925;-69
2022/08/29 01:41:26;;;;;;;;;;;14.20;99.90;;;;;;5016153;28;19929;-69
2022/08/29 01:43:56;;;;;;;;;;;14.20;99.90;;;;;;5016518;28;19925;-69
2022/08/29 01:46:23;;;;;;;;;;;14.20;99.90;;;;;;5016486;28;19925;-69
2022/08/29 01:48:50;;;;;;;;;;;14.20;99.90;;;;;;5016185;28;20007;-66
2022/08/29 01:51:17;;;;;;;;;;;14.20;99.90;;;;;;5016470;28;19929;-69
2022/08/29 01:53:44;;;;;;;;;;;14.10;99.90;;;;;;5016216;28;20461;-69
2022/08/29 01:56:13;;;;;;;;;;;14.10;99.90;;;;;;5011770;28;19979;-70
2022/08/29 01:58:40;;;;;;;;;;;14.10;99.90;;;;;;5013848;28;19925;-68
2022/08/29 02:01:09;;;;;;;;;;;14.00;99.90;;;;;;5016126;28;19936;-68
2022/08/29 02:03:36;;;;;;;;;;;14.00;99.90;;;;;;5016476;28;19929;-69
2022/08/29 02:06:03;;;;;;;;;;;14.00;99.90;;;;;;5013249;28;19929;-67
2022/08/29 02:08:31;;;;;;;;;;;14.00;99.90;;;;;;5016006;28;20389;-68
2022/08/29 02:10:58;;;;;;;;;;;14.00;99.90;;;;;;5016089;28;19987;-69
2022/08/29 02:13:25;;;;;;;;;;;14.00;99.90;;;;;;5015998;28;19932;-68
2022/08/29 02:15:52;;;;;;;;;;;14.00;99.90;;;;;;5015633;28;19929;-69
2022/08/29 02:18:20;;;;;;;;;;;14.00;99.90;;;;;;5015796;28;19937;-69
2022/08/29 02:20:47;;;;;;;;;;;14.00;99.90;;;;;;5015856;28;19929;-69
2022/08/29 02:23:14;;;;;;;;;;;14.00;99.90;;;;;;5015359;28;20011;-69
2022/08/29 02:25:46;;;;;;;;;;;14.00;99.90;;;;;;5014359;28;20427;-68
2022/08/29 02:28:14;;;;;;;;;;;14.00;99.90;;;;;;5013038;28;19925;-69
2022/08/29 02:30:41;;;;;;;;;;;14.10;99.90;;;;;;5015620;28;19925;-69
2022/08/29 02:33:09;;;;;;;;;;;14.10;99.90;;;;;;5015786;28;20332;-69
2022/08/29 02:35:37;;;;;;;;;;;14.00;99.90;;;;;;5021862;28;20304;-68
2022/08/29 02:38:04;;;;;;;;;;;14.00;99.90;;;;;;5015321;28;19925;-69
2022/08/29 02:40:31;;;;;;;;;;;14.00;99.90;;;;;;5016641;28;19971;-68
2022/08/29 02:42:58;;;;;;;;;;;13.90;99.90;;;;;;5015687;28;19925;-69
2022/08/29 02:45:25;;;;;;;;;;;13.90;99.90;;;;;;5015297;28;19986;-69
2022/08/29 02:47:52;;;;;;;;;;;13.80;99.90;;;;;;5014797;28;20019;-70
2022/08/29 02:50:19;;;;;;;;;;;13.80;99.90;;;;;;5014746;28;20396;-69
2022/08/29 02:52:47;;;;;;;;;;;13.80;99.90;;;;;;5015419;28;19925;-69
2022/08/29 02:55:17;;;;;;;;;;;13.80;99.90;;;;;;5011536;28;19925;-69
2022/08/29 02:57:44;;;;;;;;;;;13.70;99.90;;;;;;5015326;28;19925;-69
2022/08/29 03:00:15;;;;;;;;;;;13.70;99.90;;;;;;5014980;28;19933;-68
2022/08/29 03:02:42;;;;;;;;;;;13.70;99.90;;;;;;5015412;28;19925;-69
2022/08/29 03:05:09;;;;;;;;;;;13.70;99.90;;;;;;5029691;28;19925;-70
2022/08/29 03:07:36;;;;;;;;;;;13.70;99.90;;;;;;5031169;28;19929;-69
2022/08/29 03:10:05;;;;;;;;;;;13.70;99.90;;;;;;5014980;28;19991;-69
2022/08/29 03:12:32;;;;;;;;;;;13.70;99.90;;;;;;5014758;28;20377;-69
2022/08/29 03:14:59;;;;;;;;;;;13.70;99.90;;;;;;5014670;28;19924;-69
2022/08/29 03:17:25;;;;;;;;;;;13.70;99.90;;;;;;5014964;28;19933;-69
2022/08/29 03:19:52;;;;;;;;;;;13.70;99.90;;;;;;5014456;28;19925;-69
2022/08/29 03:22:19;;;;;;;;;;;13.70;99.90;;;;;;5012016;28;19925;-68
2022/08/29 03:24:46;;;;;;;;;;;13.70;99.90;;;;;;5013433;28;19934;-68
2022/08/29 03:27:14;;;;;;;;;;;13.60;99.90;;;;;;5013532;28;19925;-68
2022/08/29 03:29:41;;;;;;;;;;;13.60;99.90;;;;;;5012375;28;19925;-68
2022/08/29 03:32:08;;;;;;;;;;;13.60;99.90;;;;;;5022789;28;19929;-69
2022/08/29 03:34:34;;;;;;;;;;;13.60;99.90;;;;;;5009017;28;19947;-69
2022/08/29 03:37:01;;;;;;;;;;;13.60;99.90;;;;;;5007070;28;19925;-68
2022/08/29 03:39:28;;;;;;;;;;;13.60;99.90;;;;;;5013802;28;19932;-68
2022/08/29 03:41:55;;;;;;;;;;;13.60;99.90;;;;;;5006346;28;19925;-69
2022/08/29 03:44:23;;;;;;;;;;;13.60;99.90;;;;;;5014583;28;19925;-68
2022/08/29 03:46:50;;;;;;;;;;;13.60;99.90;;;;;;5014346;28;20348;-68
2022/08/29 03:49:17;;;;;;;;;;;13.60;99.90;;;;;;5013985;28;19983;-69
2022/08/29 03:51:44;;;;;;;;;;;13.60;99.90;;;;;;5013859;28;19975;-68
2022/08/29 03:54:11;;;;;;;;;;;13.50;99.90;;;;;;5008398;28;20420;-69
2022/08/29 03:56:38;;;;;;;;;;;13.50;99.90;;;;;;5013855;28;19933;-66
2022/08/29 03:59:05;;;;;;;;;;;13.50;99.90;;;;;;5013784;28;19932;-68
2022/08/29 04:01:33;;;;;;;;;;;13.40;99.90;;;;;;5013809;28;19952;-67
2022/08/29 04:03:59;;;;;;;;;;;13.30;99.90;;;;;;5013661;28;19975;-70
2022/08/29 04:06:27;;;;;;;;;;;13.20;99.90;;;;;;5012795;28;19972;-69
2022/08/29 04:08:54;;;;;;;;;;;13.10;99.90;;;;;;5009626;28;19984;-68
2022/08/29 04:11:22;;;;;;;;;;;13.00;99.90;;;;;;5013654;28;20443;-68
2022/08/29 04:13:49;;;;;;;;;;;12.90;99.90;;;;;;5015608;28;19932;-69
2022/08/29 04:16:17;;;;;;;;;;;12.80;99.90;;;;;;5008514;28;20024;-69
2022/08/29 04:18:45;;;;;;;;;;;12.70;99.90;;;;;;5013306;28;20412;-69
2022/08/29 04:21:12;;;;;;;;;;;12.70;99.90;;;;;;5009511;28;19929;-68
2022/08/29 04:23:39;;;;;;;;;;;12.70;99.90;;;;;;5012558;28;19929;-69
2022/08/29 04:26:11;;;;;;;;;;;12.70;99.90;;;;;;5013830;28;20372;-66
2022/08/29 04:28:38;;;;;;;;;;;12.70;99.90;;;;;;5031207;28;20007;-69
2022/08/29 04:31:05;;;;;;;;;;;12.70;99.90;;;;;;5013581;28;19925;-68
2022/08/29 04:33:31;;;;;;;;;;;12.60;99.90;;;;;;5024449;28;20396;-69
2022/08/29 04:36:00;;;;;;;;;;;12.50;99.90;;;;;;5031113;28;20021;-68
2022/08/29 04:38:26;;;;;;;;;;;12.60;99.90;;;;;;5015017;28;19956;-68
2022/08/29 04:40:53;;;;;;;;;;;12.50;99.90;;;;;;5013482;28;19969;-68
2022/08/29 04:43:19;;;;;;;;;;;12.40;99.90;;;;;;5013831;28;19968;-65
2022/08/29 04:45:53;;;;;;;;;;;12.40;99.90;;;;;;5008932;28;19960;-67
2022/08/29 04:48:20;;;;;;;;;;;12.40;99.90;;;;;;5012447;28;19925;-67
2022/08/29 04:50:52;;;;;;;;;;;12.50;99.90;;;;;;5007808;28;19926;-68
2022/08/29 04:53:21;;;;;;;;;;;12.50;99.90;;;;;;5017101;28;19929;-69
2022/08/29 04:55:55;;;;;;;;;;;12.50;99.90;;;;;;5020344;28;19931;-65
2022/08/29 04:58:23;;;;;;;;;;;12.40;99.90;;;;;;5020570;28;19925;-66
2022/08/29 05:00:50;;;;;;;;;;;12.30;99.90;;;;;;5017712;28;19984;-67
2022/08/29 05:03:17;;;;;;;;;;;12.30;99.90;;;;;;5015316;28;19925;-72
2022/08/29 05:05:44;;;;;;;;;;;12.40;99.90;;;;;;5034904;28;19925;-67
2022/08/29 05:08:11;;;;;;;;;;;12.40;99.90;;;;;;5016883;28;19929;-68
2022/08/29 05:10:39;;;;;;;;;;;12.40;99.90;;;;;;5016709;28;19925;-68
2022/08/29 05:13:06;;;;;;;;;;;12.50;99.90;;;;;;5013417;28;19925;-68
2022/08/29 05:15:33;;;;;;;;;;;12.50;99.90;;;;;;5016740;28;19932;-67
2022/08/29 05:18:00;;;;;;;;;;;12.60;99.90;;;;;;5016468;28;19925;-68
2022/08/29 05:20:27;;;;;;;;;;;12.60;99.90;;;;;;5018043;28;20285;-67
2022/08/29 05:22:53;;;;;;;;;;;12.60;99.90;;;;;;5016949;28;20423;-68
2022/08/29 05:25:20;;;;;;;;;;;12.70;99.90;;;;;;5016768;28;19925;-68
2022/08/29 05:27:49;;;;;;;;;;;12.80;99.90;;;;;;5015846;28;19937;-67
2022/08/29 05:30:16;;;;;;;;;;;12.90;99.90;;;;;;5016246;28;19929;-69
2022/08/29 05:32:42;;;;;;;;;;;13.00;99.90;;;;;;5016150;28;19979;-67
2022/08/29 05:35:10;;;;;;;;;;;13.00;99.90;;;;;;5016358;28;19925;-68
2022/08/29 05:37:37;;;;;;;;;;;13.10;99.90;;;;;;5016330;28;19932;-67
2022/08/29 05:40:05;;;;;;;;;;;13.20;99.90;;;;;;5016495;28;20004;-67
2022/08/29 05:42:31;;;;;;;;;;;13.30;99.90;;;;;;5016470;28;20027;-68
2022/08/29 05:45:00;;;;;;;;;;;13.40;99.90;;;;;;5017458;28;19925;-67
2022/08/29 05:47:27;;;;;;;;;;;13.60;99.90;;;;;;5021688;28;19940;-69
2022/08/29 05:49:53;;;;;;;;;;;13.80;99.90;;;;;;5015891;28;19928;-68
2022/08/29 05:52:20;;;;;;;;;;;14.00;99.90;;;;;;5016135;28;19925;-68
2022/08/29 05:54:47;;;;;;;;;;;14.10;99.90;;;;;;5017753;28;19944;-66
2022/08/29 05:57:15;;;;;;;;;;;14.30;99.90;;;;;;5015492;28;20396;-67
2022/08/29 05:59:42;;;;;;;;;;;14.40;99.90;;;;;;5015742;28;20127;-69
2022/08/29 06:02:11;;;;;;;;;;;14.60;99.90;;;;;;5021718;28;19990;-66
2022/08/29 06:04:38;;;;;;;;;;;14.80;99.90;;;;;;5015923;28;20322;-72
2022/08/29 06:07:05;;;;;;;;;;;14.90;99.90;;;;;;5020520;28;19929;-69
2022/08/29 06:09:32;;;;;;;;;;;14.90;99.90;;;;;;5023698;28;19925;-71
2022/08/29 06:11:59;;;;;;;;;;;14.90;99.90;;;;;;5022955;28;19932;-70
2022/08/29 06:14:26;;;;;;;;;;;15.00;99.90;;;;;;5039882;28;19963;-67
2022/08/29 06:16:53;;;;;;;;;;;14.90;99.90;;;;;;5021541;28;20348;-70
2022/08/29 06:19:21;;;;;;;;;;;14.90;99.90;;;;;;5012019;28;19968;-68
2022/08/29 06:21:48;;;;;;;;;;;14.90;99.90;;;;;;5015652;28;19932;-69
2022/08/29 06:24:15;;;;;;;;;;;15.00;99.90;;;;;;5015233;28;20348;-69
2022/08/29 06:26:43;;;;;;;;;;;14.90;99.90;;;;;;5015591;28;20340;-68
2022/08/29 06:29:10;;;;;;;;;;;14.90;99.90;;;;;;5017041;28;19940;-68
2022/08/29 06:31:37;;;;;;;;;;;15.00;99.90;;;;;;5015130;28;19925;-67
2022/08/29 06:34:05;;;;;;;;;;;15.00;99.90;;;;;;5012197;28;19984;-68
2022/08/29 06:36:34;;;;;;;;;;;15.00;99.90;;;;;;5016625;28;19925;-68
2022/08/29 06:39:01;;;;;;;;;;;15.00;99.90;;;;;;5011623;28;20359;-69
2022/08/29 06:41:29;;;;;;;;;;;15.10;99.90;;;;;;5015031;28;19925;-67
2022/08/29 06:43:59;;;;;;;;;;;15.10;99.90;;;;;;5017183;28;19932;-66
2022/08/29 06:46:28;;;;;;;;;;;15.10;99.90;;;;;;5015228;28;19956;-67
2022/08/29 06:48:55;;;;;;;;;;;15.00;99.90;;;;;;5009972;28;19925;-68
2022/08/29 06:51:22;;;;;;;;;;;15.00;99.90;;;;;;5030094;28;19924;-67
2022/08/29 06:53:51;;;;;;;;;;;15.00;99.90;;;;;;5015186;28;19925;-67
2022/08/29 06:56:17;;;;;;;;;;;15.10;99.90;;;;;;5013315;28;19951;-67
2022/08/29 06:58:45;;;;;;;;;;;15.20;99.90;;;;;;5013334;28;19929;-67
2022/08/29 07:01:13;;;;;;;;;;;15.30;99.90;;;;;;5019227;28;19925;-67
2022/08/29 07:03:41;;;;;;;;;;;15.50;99.90;;;;;;5016630;28;19929;-67
2022/08/29 07:06:08;;;;;;;;;;;15.60;99.90;;;;;;5010895;28;20012;-68
2022/08/29 07:08:34;;;;;;;;;;;15.70;99.90;;;;;;5013516;28;20355;-67
2022/08/29 07:11:03;;;;;;;;;;;15.90;99.90;;;;;;5016988;28;19925;-68
2022/08/29 07:13:31;;;;;;;;;;;16.00;99.90;;;;;;5014537;28;19983;-65
2022/08/29 07:15:57;;;;;;;;;;;16.10;99.90;;;;;;5014253;28;19967;-66
2022/08/29 07:18:24;;;;;;;;;;;16.20;99.90;;;;;;5016456;28;19975;-66
2022/08/29 07:20:51;;;;;;;;;;;16.40;99.90;;;;;;5013997;28;19940;-65
2022/08/29 07:23:18;;;;;;;;;;;16.60;99.90;;;;;;5014999;28;20024;-66
2022/08/29 07:25:44;;;;;;;;;;;16.70;99.90;;;;;;5011784;28;19925;-67
2022/08/29 07:28:13;;;;;;;;;;;16.80;99.90;;;;;;5016895;28;19929;-66
2022/08/29 07:30:39;;;;;;;;;;;16.90;99.90;;;;;;5013952;28;19929;-67
2022/08/29 07:33:06;;;;;;;;;;;17.00;99.90;;;;;;5014289;28;19941;-67
2022/08/29 07:35:33;;;;;;;;;;;17.10;99.90;;;;;;5015320;28;19950;-67
2022/08/29 07:38:01;;;;;;;;;;;17.20;99.90;;;;;;5013772;28;19929;-66
2022/08/29 07:40:28;;;;;;;;;;;17.20;99.90;;;;;;5014408;28;19960;-66
2022/08/29 07:42:55;;;;;;;;;;;17.30;99.90;;;;;;5014235;28;19925;-66
2022/08/29 07:45:23;;;;;;;;;;;17.40;99.90;;;;;;5014098;28;19925;-66
2022/08/29 07:47:50;;;;;;;;;;;17.50;99.90;;;;;;5013457;28;19937;-67
2022/08/29 07:50:17;;;;;;;;;;;17.70;99.90;;;;;;5013503;28;19960;-66
2022/08/29 07:52:43;;;;;;;;;;;17.90;99.90;;;;;;5010968;28;19960;-67
2022/08/29 07:55:10;;;;;;;;;;;18.10;99.90;;;;;;5011145;28;19933;-66
2022/08/29 07:57:37;;;;;;;;;;;18.30;99.90;;;;;;5014074;28;19926;-65
2022/08/29 08:00:05;;;;;;;;;;;18.40;99.90;;;;;;5013979;28;19929;-67
2022/08/29 08:02:40;;;;;;;;;;;18.50;99.90;;;;;;5031846;28;19929;-68
2022/08/29 08:05:07;;;;;;;;;;;18.60;99.90;;;;;;5014268;28;19932;-63
2022/08/29 08:07:35;;;;;;;;;;;18.70;99.90;;;;;;5030277;28;19932;-66
2022/08/29 08:10:03;;;;;;;;;;;18.80;99.90;;;;;;5013766;28;19958;-65
2022/08/29 08:12:30;;;;;;;;;;;19.00;99.90;;;;;;5009018;28;19925;-66
2022/08/29 08:14:57;;;;;;;;;;;19.10;99.90;;;;;;5015828;28;20436;-65
2022/08/29 08:17:24;;;;;;;;;;;19.30;99.90;;;;;;5013937;28;19925;-66
2022/08/29 08:19:52;;;;;;;;;;;19.40;99.90;;;;;;5017942;28;19925;-67
2022/08/29 08:22:19;;;;;;;;;;;19.50;99.90;;;;;;5010072;28;19948;-66
2022/08/29 08:24:47;;;;;;;;;;;19.50;99.90;;;;;;5026046;28;19932;-65
2022/08/29 08:27:14;;;;;;;;;;;19.50;99.90;;;;;;5017536;28;19925;-66
2022/08/29 08:29:42;;;;;;;;;;;19.50;99.90;;;;;;5013342;28;19929;-65
2022/08/29 08:32:09;;;;;;;;;;;19.50;99.90;;;;;;5014419;28;19983;-66
2022/08/29 08:34:36;;;;;;;;;;;19.40;99.90;;;;;;5028659;28;19968;-68
2022/08/29 08:37:07;;;;;;;;;;;19.40;99.90;;;;;;5009612;28;19929;-68
2022/08/29 08:39:34;;;;;;;;;;;19.50;99.90;;;;;;5030415;28;19964;-70
2022/08/29 08:42:04;;;;;;;;;;;19.50;99.90;;;;;;5015863;28;20367;-67
2022/08/29 08:44:43;;;;;;;;;;;19.50;99.90;;;;;;5017584;28;19983;-67
2022/08/29 08:47:13;;;;;;;;;;;19.60;99.90;;;;;;5018669;28;19925;-67
2022/08/29 08:49:44;;;;;;;;;;;19.70;99.90;;;;;;5017241;28;19925;-66
2022/08/29 08:52:16;;;;;;;;;;;19.80;99.90;;;;;;5017802;28;19932;-69
2022/08/29 08:54:46;;;;;;;;;;;19.90;99.90;;;;;;5017459;28;20415;-69
2022/08/29 08:57:14;;;;;;;;;;;20.10;99.90;;;;;;5015956;28;19925;-69
2022/08/29 08:59:42;;;;;;;;;;;20.20;99.90;;;;;;5031390;28;20348;-67
2022/08/29 09:02:13;;;;;;;;;;;20.20;99.90;;;;;;5017326;28;19948;-66
2022/08/29 09:04:48;;;;;;;;;;;20.40;99.90;;;;;;5012672;28;19937;-67
2022/08/29 09:07:25;;;;;;;;;;;20.50;99.90;;;;;;5014740;28;19925;-67
2022/08/29 09:09:57;;;;;;;;;;;20.60;99.90;;;;;;5012867;28;19931;-67
2022/08/29 09:12:31;;;;;;;;;;;20.60;99.90;;;;;;5034491;28;19925;-67
2022/08/29 09:15:01;;;;;;;;;;;20.70;99.90;;;;;;5014603;28;19987;-67
2022/08/29 09:17:31;;;;;;;;;;;20.80;99.90;;;;;;5013993;28;20355;-66
2022/08/29 09:19:58;;;;;;;;;;;20.90;99.90;;;;;;5016636;28;19925;-66
2022/08/29 09:22:29;;;;;;;;;;;21.00;99.90;;;;;;5008218;28;19929;-68
2022/08/29 09:24:58;;;;;;;;;;;20.90;99.90;;;;;;5017112;28;19932;-67
2022/08/29 09:27:27;;;;;;;;;;;20.90;99.90;;;;;;5016227;28;20019;-67
2022/08/29 09:29:56;;;;;;;;;;;21.10;99.90;;;;;;5017482;28;19925;-64
2022/08/29 09:32:23;;;;;;;;;;;21.40;99.90;;;;;;5006600;28;19925;-65
2022/08/29 09:34:50;;;;;;;;;;;21.60;99.90;;;;;;5015892;28;19967;-64
2022/08/29 09:37:30;;;;;;;;;;;21.80;99.90;;;;;;5016354;28;19925;-64
2022/08/29 09:39:59;;;;;;;;;;;22.00;99.90;;;;;;5018205;28;19932;-66
2022/08/29 09:42:29;;;;;;;;;;;22.10;99.90;;;;;;5013976;28;19929;-67
2022/08/29 09:44:57;;;;;;;;;;;22.00;99.90;;;;;;5026304;28;20376;-67
2022/08/29 09:47:25;;;;;;;;;;;22.00;99.90;;;;;;5018114;28;20034;-67
2022/08/29 09:50:01;;;;;;;;;;;21.90;99.90;;;;;;5014727;28;20423;-68
2022/08/29 09:52:29;;;;;;;;;;;21.90;99.90;;;;;;5016411;28;20306;-68
2022/08/29 09:54:56;;;;;;;;;;;22.00;99.90;;;;;;5014395;28;19932;-68
2022/08/29 09:57:25;;;;;;;;;;;22.10;99.90;;;;;;5013597;28;19929;-68
2022/08/29 10:00:09;;;;;;;;;;;22.20;99.90;;;;;;5015861;28;19936;-68
2022/08/29 10:02:38;;;;;;;;;;;22.30;99.90;;;;;;5013855;28;20012;-68
2022/08/29 10:05:06;;;;;;;;;;;22.40;99.90;;;;;;5020227;28;19925;-68
2022/08/29 10:07:35;;;;;;;;;;;22.50;99.90;;;;;;5017223;28;19956;-69
2022/08/29 10:10:04;;;;;;;;;;;22.40;99.90;;;;;;5023589;28;19929;-68
2022/08/29 10:12:36;;;;;;;;;;;22.50;99.90;;;;;;5015946;28;20471;-67
2022/08/29 10:15:04;;;;;;;;;;;22.60;99.90;;;;;;5007827;28;19932;-68
2022/08/29 10:20:20;;;;;;;;;;;23.00;99.90;;;;;;5010788;28;19921;-67
2022/08/29 10:22:52;;;;;;;;;;;23.20;99.90;;;;;;5028875;28;19932;-67
2022/08/29 10:25:33;;;;;;;;;;;23.50;99.90;;;;;;5022333;28;19925;-67
2022/08/29 10:28:02;;;;;;;;;;;23.80;99.90;;;;;;5015209;28;19925;-67
2022/08/29 10:30:34;;;;;;;;;;;24.20;99.90;;;;;;5015212;28;19925;-66
2022/08/29 10:33:06;;;;;;;;;;;24.30;99.90;;;;;;5006800;28;19925;-68
2022/08/29 10:35:37;;;;;;;;;;;24.60;99.90;;;;;;5013896;28;20335;-67
2022/08/29 10:38:11;;;;;;;;;;;24.70;99.90;;;;;;5008369;28;20388;-67
2022/08/29 10:40:41;;;;;;;;;;;24.70;99.90;;;;;;5014070;28;19925;-68
2022/08/29 10:43:27;;;;;;;;;;;24.70;99.90;;;;;;5008017;28;21979;-67
2022/08/29 10:46:03;;;;;;;;;;;24.90;99.90;;;;;;4999923;28;20384;-67
2022/08/29 10:48:36;;;;;;;;;;;25.00;99.90;;;;;;5010500;28;20371;-68
2022/08/29 10:51:08;;;;;;;;;;;24.80;99.90;;;;;;5015915;28;19933;-67
2022/08/29 10:53:40;;;;;;;;;;;24.70;99.90;;;;;;5012729;28;19929;-69
2022/08/29 10:56:11;;;;;;;;;;;24.60;99.90;;;;;;5015425;28;20323;-67
2022/08/29 10:58:41;;;;;;;;;;;24.90;99.90;;;;;;5015681;28;20438;-68
2022/08/29 11:01:12;;;;;;;;;;;25.10;99.90;;;;;;5014687;28;19949;-68
2022/08/29 11:03:43;;;;;;;;;;;25.50;99.90;;;;;;5019101;28;19933;-67
2022/08/29 11:06:13;;;;;;;;;;;25.70;99.90;;;;;;5015058;28;19925;-67
2022/08/29 11:08:44;;;;;;;;;;;25.50;99.90;;;;;;5015491;28;19952;-67
2022/08/29 11:11:12;;;;;;;;;;;25.70;99.90;;;;;;5015922;28;20286;-66
2022/08/29 11:13:40;;;;;;;;;;;25.70;99.90;;;;;;5005404;28;20447;-68
2022/08/29 11:16:12;;;;;;;;;;;25.80;99.90;;;;;;5003023;28;19932;-67
2022/08/29 11:18:42;;;;;;;;;;;26.00;99.90;;;;;;5009329;28;19932;-67
2022/08/29 11:21:15;;;;;;;;;;;26.10;99.90;;;;;;5007875;28;19945;-68
2022/08/29 11:23:45;;;;;;;;;;;26.40;99.90;;;;;;5005053;28;19928;-68
2022/08/29 11:26:16;;;;;;;;;;;26.50;99.90;;;;;;5008910;28;19925;-66
2022/08/29 11:28:48;;;;;;;;;;;27.00;99.90;;;;;;5006338;28;20393;-67
2022/08/29 11:31:19;;;;;;;;;;;27.60;99.90;;;;;;5009237;28;19929;-67
2022/08/29 11:33:47;;;;;;;;;;;30.80;99.90;;;;;;5022796;28;19929;-68
2022/08/29 11:36:25;;;;;;;;;;;33.20;99.90;;;;;;5014665;28;19933;-68
2022/08/29 11:39:00;;;;;;;;;;;34.80;99.90;;;;;;5016153;28;19972;-68
2022/08/29 11:41:28;;;;;;;;;;;35.20;99.90;;;;;;5014107;28;19929;-67
2022/08/29 11:43:57;;;;;;;;;;;35.70;99.90;;;;;;5017093;28;19925;-68
2022/08/29 11:46:32;;;;;;;;;;;36.90;99.60;;;;;;5014177;28;20020;-68
2022/08/29 11:49:20;;;;;;;;;;;36.40;97.60;;;;;;5015784;28;19932;-64
2022/08/29 11:51:50;;;;;;;;;;;36.00;97.20;;;;;;5016762;28;19936;-69
2022/08/29 11:54:35;;;;;;;;;;;34.90;96.50;;;;;;5013549;28;19925;-68
2022/08/29 11:57:21;;;;;;;;;;;32.90;97.50;;;;;;5007169;28;19979;-68
2022/08/29 12:00:00;;;;;;;;;;;32.60;97.60;;;;;;5013269;28;19929;-68
2022/08/29 12:02:39;;;;;;;;;;;32.80;97.70;;;;;;5014035;28;19933;-67
2022/08/29 12:05:08;;;;;;;;;;;34.20;97.30;;;;;;5016070;28;20343;-67
2022/08/29 12:07:37;;;;;;;;;;;34.30;96.70;;;;;;5013737;28;19929;-68
2022/08/29 12:10:05;;;;;;;;;;;33.80;96.40;;;;;;5011042;28;20418;-68
2022/08/29 12:12:53;;;;;;;;;;;33.20;96.80;;;;;;5010974;28;19925;-68
2022/08/29 12:15:38;;;;;;;;;;;33.20;96.70;;;;;;5035648;28;20021;-68
2022/08/29 12:18:30;;;;;;;;;;;33.30;96.60;;;;;;5011088;28;19925;-67
2022/08/29 12:20:59;;;;;;;;;;;33.90;97.10;;;;;;5006191;28;19932;-68
2022/08/29 12:23:28;;;;;;;;;;;33.60;95.90;;;;;;5014096;28;19932;-67
2022/08/29 12:25:56;;;;;;;;;;;34.20;96.10;;;;;;5005983;28;19925;-66
2022/08/29 12:28:35;;;;;;;;;;;35.10;95.70;;;;;;5013852;28;19930;-68
2022/08/29 12:31:06;;;;;;;;;;;34.40;95.20;;;;;;5006447;28;19925;-68
2022/08/29 12:33:41;;;;;;;;;;;33.40;95.60;;;;;;5014007;28;19991;-68
2022/08/29 12:36:12;;;;;;;;;;;33.40;95.50;;;;;;5020771;28;19926;-68
2022/08/29 12:38:44;;;;;;;;;;;33.70;95.10;;;;;;5028039;28;20441;-68
2022/08/29 12:41:24;;;;;;;;;;;32.90;95.30;;;;;;5014975;28;19931;-68
2022/08/29 12:43:54;;;;;;;;;;;31.70;95.60;;;;;;5010932;28;19925;-68
2022/08/29 12:46:23;;;;;;;;;;;31.10;96.20;;;;;;5017331;28;19924;-68
2022/08/29 12:48:54;;;;;;;;;;;31.00;96.80;;;;;;5028971;28;20381;-68
2022/08/29 12:51:34;;;;;;;;;;;31.60;96.30;;;;;;5020814;28;20359;-67
2022/08/29 12:54:01;;;;;;;;;;;31.60;95.80;;;;;;5017953;28;19925;-67
2022/08/29 12:56:28;;;;;;;;;;;31.40;96.50;;;;;;5011840;28;20335;-67
2022/08/29 12:58:56;;;;;;;;;;;32.10;95.70;;;;;;5007826;28;19941;-67
2022/08/29 13:01:27;;;;;;;;;;;31.70;95.90;;;;;;5009565;28;19931;-67
2022/08/29 13:04:00;;;;;;;;;;;30.90;96.00;;;;;;5022980;28;19956;-64
2022/08/29 13:06:27;;;;;;;;;;;30.20;96.60;;;;;;5018980;28;20453;-68
2022/08/29 13:08:54;;;;;;;;;;;29.60;96.80;;;;;;5018477;28;19940;-69
2022/08/29 13:11:23;;;;;;;;;;;29.50;97.00;;;;;;5015311;28;19925;-71
2022/08/29 13:13:50;;;;;;;;;;;30.50;96.80;;;;;;5029195;28;19940;-69
2022/08/29 13:16:24;;;;;;;;;;;30.40;96.40;;;;;;5013900;28;19937;-69
2022/08/29 13:18:51;;;;;;;;;;;30.10;96.60;;;;;;5010188;28;19925;-67
2022/08/29 13:21:22;;;;;;;;;;;30.20;96.60;;;;;;5013182;28;20391;-69
2022/08/29 13:23:57;;;;;;;;;;;29.80;96.60;;;;;;5006006;28;19924;-69
2022/08/29 13:26:26;;;;;;;;;;;29.00;97.10;;;;;;5009485;28;19932;-69
2022/08/29 13:28:54;;;;;;;;;;;28.90;97.60;;;;;;5011711;28;20309;-69
2022/08/29 13:31:22;;;;;;;;;;;29.00;97.40;;;;;;5016659;28;19948;-68
2022/08/29 13:34:19;;;;;;;;;;;29.30;97.50;;;;;;5015100;28;19925;-69
2022/08/29 13:36:50;;;;;;;;;;;29.80;97.50;;;;;;5041930;28;19925;-69
2022/08/29 13:39:24;;;;;;;;;;;30.90;96.60;;;;;;5016036;28;19925;-68
2022/08/29 13:41:51;;;;;;;;;;;30.70;96.50;;;;;;5010822;28;20421;-70
2022/08/29 13:44:19;;;;;;;;;;;31.50;96.50;;;;;;5021414;28;19925;-69
2022/08/29 13:46:46;;;;;;;;;;;32.30;95.90;;;;;;5012065;28;19925;-69
2022/08/29 13:49:18;;;;;;;;;;;32.80;95.60;;;;;;5017226;28;19925;-70
2022/08/29 13:51:45;;;;;;;;;;;33.50;95.60;;;;;;5012762;28;19929;-69
2022/08/29 13:54:13;;;;;;;;;;;33.60;95.10;;;;;;5017509;28;19932;-69
2022/08/29 13:56:40;;;;;;;;;;;34.10;94.90;;;;;;5015010;28;19960;-69
2022/08/29 13:59:07;;;;;;;;;;;34.20;94.50;;;;;;5021297;28;19925;-68
2022/08/29 14:01:34;;;;;;;;;;;34.70;94.30;;;;;;5010043;28;19926;-69
2022/08/29 14:04:01;;;;;;;;;;;35.20;94.00;;;;;;5011933;28;19925;-70
2022/08/29 14:06:31;;;;;;;;;;;35.90;93.70;;;;;;5004081;28;19930;-70
2022/08/29 14:08:58;;;;;;;;;;;35.80;93.40;;;;;;5004200;28;20314;-69
2022/08/29 14:11:27;;;;;;;;;;;35.80;93.30;;;;;;5016648;28;19932;-69
2022/08/29 14:13:54;;;;;;;;;;;36.10;92.80;;;;;;5018594;28;19961;-69
2022/08/29 14:16:20;;;;;;;;;;;36.00;92.60;;;;;;5015863;28;20384;-70
2022/08/29 14:18:48;;;;;;;;;;;36.10;92.40;;;;;;5013101;28;19979;-67
2022/08/29 14:21:16;;;;;;;;;;;36.00;92.40;;;;;;5008625;28;19929;-69
2022/08/29 14:23:43;;;;;;;;;;;36.00;92.10;;;;;;5020127;28;20019;-70
2022/08/29 14:26:10;;;;;;;;;;;35.40;92.20;;;;;;5009534;28;19926;-70
2022/08/29 14:28:38;;;;;;;;;;;35.10;92.40;;;;;;5015794;28;19932;-70
2022/08/29 14:31:05;;;;;;;;;;;34.90;92.30;;;;;;5031978;28;19929;-70
2022/08/29 14:33:31;;;;;;;;;;;35.30;92.20;;;;;;5015933;28;19925;-69